sensor_id;sensor_type;location;lat;lon;timestamp;temperature;humidity
25953;DHT22;13750;50.804;8.764;2022-08-19T00:00:06;22.00;66.10
25953;DHT22;13750;50.804;8.764;2022-08-19T00:02:34;22.00;66.20
25953;DHT22;13750;50.804;8.764;2022-08-19T00:04:59;21.90;66.20
25953;DHT22;13750;50.804;8.764;2022-08-19T00:07:25;21.90;66.30
25953;DHT22;13750;50.804;8.764;2022-08-19T00:09:50;21.90;66.40
25953;DHT22;13750;50.804;8.764;2022-08-19T00:12:16;22.00;66.40
25953;DHT22;13750;50.804;8.764;2022-08-19T00:14:42;21.90;66.40
25953;DHT22;13750;50.804;8.764;2022-08-19T00:17:09;21.90;66.50
25953;DHT22;13750;50.804;8.764;2022-08-19T00:19:35;21.90;66.50
25953;DHT22;13750;50.804;8.764;2022-08-19T00:22:01;21.90;66.60
25953;DHT22;13750;50.804;8.764;2022-08-19T00:24:27;21.90;66.50
25953;DHT22;13750;50.804;8.764;2022-08-19T00:26:54;21.90;66.50
25953;DHT22;13750;50.804;8.764;2022-08-19T00:29:22;21.90;66.60
25953;DHT22;13750;50.804;8.764;2022-08-19T00:31:52;21.90;66.60
25953;DHT22;13750;50.804;8.764;2022-08-19T00:34:25;21.90;66.60
25953;DHT22;13750;50.804;8.764;2022-08-19T00:36:53;21.90;66.60
25953;DHT22;13750;50.804;8.764;2022-08-19T00:39:19;22.00;66.70
25953;DHT22;13750;50.804;8.764;2022-08-19T00:41:46;21.90;66.70
25953;DHT22;13750;50.804;8.764;2022-08-19T00:44:20;21.90;66.80
25953;DHT22;13750;50.804;8.764;2022-08-19T00:46:48;21.90;66.80
25953;DHT22;13750;50.804;8.764;2022-08-19T00:49:24;21.90;66.80
25953;DHT22;13750;50.804;8.764;2022-08-19T00:51:53;22.00;66.80
25953;DHT22;13750;50.804;8.764;2022-08-19T00:54:21;22.00;66.80
25953;DHT22;13750;50.804;8.764;2022-08-19T00:56:47;22.00;66.90
25953;DHT22;13750;50.804;8.764;2022-08-19T00:59:13;22.00;67.00
25953;DHT22;13750;50.804;8.764;2022-08-19T01:01:41;21.90;67.20
25953;DHT22;13750;50.804;8.764;2022-08-19T01:04:07;21.90;67.40
25953;DHT22;13750;50.804;8.764;2022-08-19T01:06:35;21.90;67.50
25953;DHT22;13750;50.804;8.764;2022-08-19T01:09:01;21.90;67.50
25953;DHT22;13750;50.804;8.764;2022-08-19T01:11:39;21.90;67.50
25953;DHT22;13750;50.804;8.764;2022-08-19T01:14:06;21.90;67.60
25953;DHT22;13750;50.804;8.764;2022-08-19T01:16:33;21.90;67.70
25953;DHT22;13750;50.804;8.764;2022-08-19T01:19:03;21.90;67.80
25953;DHT22;13750;50.804;8.764;2022-08-19T01:21:35;21.80;67.70
25953;DHT22;13750;50.804;8.764;2022-08-19T01:24:10;21.80;67.80
25953;DHT22;13750;50.804;8.764;2022-08-19T01:26:43;21.80;68.00
25953;DHT22;13750;50.804;8.764;2022-08-19T01:29:10;21.80;68.00
25953;DHT22;13750;50.804;8.764;2022-08-19T01:31:36;21.80;68.10
25953;DHT22;13750;50.804;8.764;2022-08-19T01:34:04;21.80;68.10
25953;DHT22;13750;50.804;8.764;2022-08-19T01:39:04;21.70;68.20
25953;DHT22;13750;50.804;8.764;2022-08-19T01:41:30;21.70;68.30
25953;DHT22;13750;50.804;8.764;2022-08-19T01:43:56;21.70;68.30
25953;DHT22;13750;50.804;8.764;2022-08-19T01:46:21;21.70;68.40
25953;DHT22;13750;50.804;8.764;2022-08-19T01:48:47;21.70;68.40
25953;DHT22;13750;50.804;8.764;2022-08-19T01:51:13;21.70;68.40
25953;DHT22;13750;50.804;8.764;2022-08-19T01:53:40;21.70;68.40
25953;DHT22;13750;50.804;8.764;2022-08-19T01:56:08;21.60;68.60
25953;DHT22;13750;50.804;8.764;2022-08-19T01:58:38;21.70;68.50
25953;DHT22;13750;50.804;8.764;2022-08-19T02:01:06;21.70;68.60
25953;DHT22;13750;50.804;8.764;2022-08-19T02:03:32;21.70;68.60
25953;DHT22;13750;50.804;8.764;2022-08-19T02:06:00;21.70;68.70
25953;DHT22;13750;50.804;8.764;2022-08-19T02:08:30;21.70;68.90
25953;DHT22;13750;50.804;8.764;2022-08-19T02:10:56;21.70;69.00
25953;DHT22;13750;50.804;8.764;2022-08-19T02:13:22;21.70;69.00
25953;DHT22;13750;50.804;8.764;2022-08-19T02:15:51;21.70;68.90
25953;DHT22;13750;50.804;8.764;2022-08-19T02:18:17;21.70;68.90
25953;DHT22;13750;50.804;8.764;2022-08-19T02:20:44;21.60;69.00
25953;DHT22;13750;50.804;8.764;2022-08-19T02:23:11;21.60;69.30
25953;DHT22;13750;50.804;8.764;2022-08-19T02:25:37;21.60;69.40
25953;DHT22;13750;50.804;8.764;2022-08-19T02:28:04;21.60;69.40
25953;DHT22;13750;50.804;8.764;2022-08-19T02:30:30;21.60;69.30
25953;DHT22;13750;50.804;8.764;2022-08-19T02:32:57;21.60;69.40
25953;DHT22;13750;50.804;8.764;2022-08-19T02:35:23;21.60;69.40
25953;DHT22;13750;50.804;8.764;2022-08-19T02:37:49;21.60;69.60
25953;DHT22;13750;50.804;8.764;2022-08-19T02:40:34;21.60;69.70
25953;DHT22;13750;50.804;8.764;2022-08-19T02:43:09;21.60;69.70
25953;DHT22;13750;50.804;8.764;2022-08-19T02:45:41;21.50;69.80
25953;DHT22;13750;50.804;8.764;2022-08-19T02:48:18;21.50;69.90
25953;DHT22;13750;50.804;8.764;2022-08-19T02:50:54;21.50;70.00
25953;DHT22;13750;50.804;8.764;2022-08-19T02:53:24;21.50;70.00
25953;DHT22;13750;50.804;8.764;2022-08-19T02:55:51;21.50;69.90
25953;DHT22;13750;50.804;8.764;2022-08-19T02:58:18;21.50;69.90
25953;DHT22;13750;50.804;8.764;2022-08-19T03:00:47;21.40;70.00
25953;DHT22;13750;50.804;8.764;2022-08-19T03:03:14;21.40;70.00
25953;DHT22;13750;50.804;8.764;2022-08-19T03:05:41;21.40;70.10
25953;DHT22;13750;50.804;8.764;2022-08-19T03:08:08;21.40;70.10
25953;DHT22;13750;50.804;8.764;2022-08-19T03:10:44;21.40;70.30
25953;DHT22;13750;50.804;8.764;2022-08-19T03:13:14;21.30;70.30
25953;DHT22;13750;50.804;8.764;2022-08-19T03:15:42;21.30;70.30
25953;DHT22;13750;50.804;8.764;2022-08-19T03:18:09;21.30;70.40
25953;DHT22;13750;50.804;8.764;2022-08-19T03:20:43;21.30;70.40
25953;DHT22;13750;50.804;8.764;2022-08-19T03:23:10;21.20;70.50
25953;DHT22;13750;50.804;8.764;2022-08-19T03:25:39;21.20;70.60
25953;DHT22;13750;50.804;8.764;2022-08-19T03:28:07;21.20;70.60
25953;DHT22;13750;50.804;8.764;2022-08-19T03:30:33;21.20;70.70
25953;DHT22;13750;50.804;8.764;2022-08-19T03:32:59;21.10;70.80
25953;DHT22;13750;50.804;8.764;2022-08-19T03:35:24;21.10;70.90
25953;DHT22;13750;50.804;8.764;2022-08-19T03:37:50;21.10;70.90
25953;DHT22;13750;50.804;8.764;2022-08-19T03:40:16;21.10;71.00
25953;DHT22;13750;50.804;8.764;2022-08-19T03:42:41;21.10;71.10
25953;DHT22;13750;50.804;8.764;2022-08-19T03:45:08;21.00;71.20
25953;DHT22;13750;50.804;8.764;2022-08-19T03:47:35;21.00;71.30
25953;DHT22;13750;50.804;8.764;2022-08-19T03:50:03;20.90;71.30
25953;DHT22;13750;50.804;8.764;2022-08-19T03:52:29;20.90;71.50
25953;DHT22;13750;50.804;8.764;2022-08-19T03:54:55;20.90;71.50
25953;DHT22;13750;50.804;8.764;2022-08-19T03:57:20;20.90;71.70
25953;DHT22;13750;50.804;8.764;2022-08-19T03:59:46;20.80;71.70
25953;DHT22;13750;50.804;8.764;2022-08-19T04:02:12;20.80;71.70
25953;DHT22;13750;50.804;8.764;2022-08-19T04:04:39;20.80;71.80
25953;DHT22;13750;50.804;8.764;2022-08-19T04:07:05;20.80;71.90
25953;DHT22;13750;50.804;8.764;2022-08-19T04:09:32;20.70;72.00
25953;DHT22;13750;50.804;8.764;2022-08-19T04:11:58;20.70;71.90
25953;DHT22;13750;50.804;8.764;2022-08-19T04:14:27;20.70;72.10
25953;DHT22;13750;50.804;8.764;2022-08-19T04:16:55;20.70;72.20
25953;DHT22;13750;50.804;8.764;2022-08-19T04:19:22;20.70;72.20
25953;DHT22;13750;50.804;8.764;2022-08-19T04:21:50;20.60;72.20
25953;DHT22;13750;50.804;8.764;2022-08-19T04:24:16;20.60;72.20
25953;DHT22;13750;50.804;8.764;2022-08-19T04:26:42;20.60;72.30
25953;DHT22;13750;50.804;8.764;2022-08-19T04:29:12;20.60;72.50
25953;DHT22;13750;50.804;8.764;2022-08-19T04:31:38;20.60;72.50
25953;DHT22;13750;50.804;8.764;2022-08-19T04:34:06;20.60;72.50
25953;DHT22;13750;50.804;8.764;2022-08-19T04:36:34;20.60;72.50
25953;DHT22;13750;50.804;8.764;2022-08-19T04:39:07;20.60;72.50
25953;DHT22;13750;50.804;8.764;2022-08-19T04:41:36;20.60;72.50
25953;DHT22;13750;50.804;8.764;2022-08-19T04:44:20;20.60;72.50
25953;DHT22;13750;50.804;8.764;2022-08-19T04:46:47;20.60;72.50
25953;DHT22;13750;50.804;8.764;2022-08-19T04:49:17;20.50;72.70
25953;DHT22;13750;50.804;8.764;2022-08-19T04:51:45;20.50;72.80
25953;DHT22;13750;50.804;8.764;2022-08-19T04:54:13;20.50;73.00
25953;DHT22;13750;50.804;8.764;2022-08-19T04:56:40;20.50;73.10
25953;DHT22;13750;50.804;8.764;2022-08-19T04:59:06;20.50;73.10
25953;DHT22;13750;50.804;8.764;2022-08-19T05:01:33;20.50;73.10
25953;DHT22;13750;50.804;8.764;2022-08-19T05:04:04;20.50;73.00
25953;DHT22;13750;50.804;8.764;2022-08-19T05:06:31;20.50;72.90
25953;DHT22;13750;50.804;8.764;2022-08-19T05:09:00;20.60;72.80
25953;DHT22;13750;50.804;8.764;2022-08-19T05:11:28;20.60;72.80
25953;DHT22;13750;50.804;8.764;2022-08-19T05:13:55;20.60;72.90
25953;DHT22;13750;50.804;8.764;2022-08-19T05:16:22;20.60;72.80
25953;DHT22;13750;50.804;8.764;2022-08-19T05:18:48;20.60;72.90
25953;DHT22;13750;50.804;8.764;2022-08-19T05:21:33;20.50;73.00
25953;DHT22;13750;50.804;8.764;2022-08-19T05:24:19;20.50;73.10
25953;DHT22;13750;50.804;8.764;2022-08-19T05:26:47;20.50;73.20
25953;DHT22;13750;50.804;8.764;2022-08-19T05:29:19;20.50;73.20
25953;DHT22;13750;50.804;8.764;2022-08-19T05:31:46;20.50;73.30
25953;DHT22;13750;50.804;8.764;2022-08-19T05:34:12;20.50;73.40
25953;DHT22;13750;50.804;8.764;2022-08-19T05:36:42;20.50;73.40
25953;DHT22;13750;50.804;8.764;2022-08-19T05:39:12;20.50;73.50
25953;DHT22;13750;50.804;8.764;2022-08-19T05:41:47;20.50;73.50
25953;DHT22;13750;50.804;8.764;2022-08-19T05:44:13;20.50;73.60
25953;DHT22;13750;50.804;8.764;2022-08-19T05:46:40;20.50;73.60
25953;DHT22;13750;50.804;8.764;2022-08-19T05:49:08;20.50;73.50
25953;DHT22;13750;50.804;8.764;2022-08-19T05:51:35;20.50;73.60
25953;DHT22;13750;50.804;8.764;2022-08-19T05:54:03;20.50;73.50
25953;DHT22;13750;50.804;8.764;2022-08-19T05:56:30;20.50;73.50
25953;DHT22;13750;50.804;8.764;2022-08-19T05:58:56;20.50;73.50
25953;DHT22;13750;50.804;8.764;2022-08-19T06:01:25;20.50;73.50
25953;DHT22;13750;50.804;8.764;2022-08-19T06:03:51;20.50;73.50
25953;DHT22;13750;50.804;8.764;2022-08-19T06:06:17;20.50;73.40
25953;DHT22;13750;50.804;8.764;2022-08-19T06:08:43;20.60;73.40
25953;DHT22;13750;50.804;8.764;2022-08-19T06:11:38;20.60;73.20
25953;DHT22;13750;50.804;8.764;2022-08-19T06:14:08;20.60;73.10
25953;DHT22;13750;50.804;8.764;2022-08-19T06:16:36;20.60;72.90
25953;DHT22;13750;50.804;8.764;2022-08-19T06:19:06;20.70;72.90
25953;DHT22;13750;50.804;8.764;2022-08-19T06:21:33;20.70;72.70
25953;DHT22;13750;50.804;8.764;2022-08-19T06:23:59;20.80;72.60
25953;DHT22;13750;50.804;8.764;2022-08-19T06:26:25;20.80;72.60
25953;DHT22;13750;50.804;8.764;2022-08-19T06:28:51;20.80;72.60
25953;DHT22;13750;50.804;8.764;2022-08-19T06:31:22;20.80;72.60
25953;DHT22;13750;50.804;8.764;2022-08-19T06:33:48;20.90;72.50
25953;DHT22;13750;50.804;8.764;2022-08-19T06:36:26;20.90;72.50
25953;DHT22;13750;50.804;8.764;2022-08-19T06:38:53;21.00;72.60
25953;DHT22;13750;50.804;8.764;2022-08-19T06:41:19;21.00;72.60
25953;DHT22;13750;50.804;8.764;2022-08-19T06:43:45;21.10;72.60
25953;DHT22;13750;50.804;8.764;2022-08-19T06:46:14;21.10;72.50
25953;DHT22;13750;50.804;8.764;2022-08-19T06:48:41;21.10;72.40
25953;DHT22;13750;50.804;8.764;2022-08-19T06:51:07;21.10;72.30
25953;DHT22;13750;50.804;8.764;2022-08-19T06:53:33;21.20;72.20
25953;DHT22;13750;50.804;8.764;2022-08-19T06:55:59;21.30;72.10
25953;DHT22;13750;50.804;8.764;2022-08-19T06:58:31;21.30;72.00
25953;DHT22;13750;50.804;8.764;2022-08-19T07:01:03;21.30;71.80
25953;DHT22;13750;50.804;8.764;2022-08-19T07:03:30;21.30;71.70
25953;DHT22;13750;50.804;8.764;2022-08-19T07:05:57;21.40;71.50
25953;DHT22;13750;50.804;8.764;2022-08-19T07:08:22;21.50;71.40
25953;DHT22;13750;50.804;8.764;2022-08-19T07:10:49;21.50;71.20
25953;DHT22;13750;50.804;8.764;2022-08-19T07:13:15;21.60;70.90
25953;DHT22;13750;50.804;8.764;2022-08-19T07:15:40;21.60;70.80
25953;DHT22;13750;50.804;8.764;2022-08-19T07:18:06;21.60;70.70
25953;DHT22;13750;50.804;8.764;2022-08-19T07:20:31;21.60;70.70
25953;DHT22;13750;50.804;8.764;2022-08-19T07:22:58;21.60;70.70
25953;DHT22;13750;50.804;8.764;2022-08-19T07:25:23;21.70;70.60
25953;DHT22;13750;50.804;8.764;2022-08-19T07:27:49;21.70;70.60
25953;DHT22;13750;50.804;8.764;2022-08-19T07:30:16;21.80;70.60
25953;DHT22;13750;50.804;8.764;2022-08-19T07:32:42;21.80;70.70
25953;DHT22;13750;50.804;8.764;2022-08-19T07:35:08;21.90;70.60
25953;DHT22;13750;50.804;8.764;2022-08-19T07:37:35;21.90;70.20
25953;DHT22;13750;50.804;8.764;2022-08-19T07:40:04;22.00;68.80
25953;DHT22;13750;50.804;8.764;2022-08-19T07:42:36;22.00;67.90
25953;DHT22;13750;50.804;8.764;2022-08-19T07:45:02;22.10;68.10
25953;DHT22;13750;50.804;8.764;2022-08-19T07:47:34;22.10;68.00
25953;DHT22;13750;50.804;8.764;2022-08-19T07:49:59;22.20;66.90
25953;DHT22;13750;50.804;8.764;2022-08-19T07:52:27;22.20;67.00
25953;DHT22;13750;50.804;8.764;2022-08-19T07:54:59;22.20;67.00
25953;DHT22;13750;50.804;8.764;2022-08-19T07:57:28;22.30;66.30
25953;DHT22;13750;50.804;8.764;2022-08-19T07:59:54;22.30;66.20
25953;DHT22;13750;50.804;8.764;2022-08-19T08:02:19;22.40;66.00
25953;DHT22;13750;50.804;8.764;2022-08-19T08:04:45;22.40;65.80
25953;DHT22;13750;50.804;8.764;2022-08-19T08:07:29;22.40;65.80
25953;DHT22;13750;50.804;8.764;2022-08-19T08:10:13;22.40;64.70
25953;DHT22;13750;50.804;8.764;2022-08-19T08:12:39;22.50;64.60
25953;DHT22;13750;50.804;8.764;2022-08-19T08:15:10;22.50;64.40
25953;DHT22;13750;50.804;8.764;2022-08-19T08:17:36;22.60;64.80
25953;DHT22;13750;50.804;8.764;2022-08-19T08:20:04;22.50;64.90
25953;DHT22;13750;50.804;8.764;2022-08-19T08:22:32;22.60;64.90
25953;DHT22;13750;50.804;8.764;2022-08-19T08:25:20;22.60;65.10
25953;DHT22;13750;50.804;8.764;2022-08-19T08:27:46;22.60;64.90
25953;DHT22;13750;50.804;8.764;2022-08-19T08:30:15;22.60;65.00
25953;DHT22;13750;50.804;8.764;2022-08-19T08:32:41;22.60;63.90
25953;DHT22;13750;50.804;8.764;2022-08-19T08:35:09;22.70;63.80
25953;DHT22;13750;50.804;8.764;2022-08-19T08:37:35;22.70;63.90
25953;DHT22;13750;50.804;8.764;2022-08-19T08:42:40;22.70;64.20
25953;DHT22;13750;50.804;8.764;2022-08-19T08:45:14;22.80;64.00
25953;DHT22;13750;50.804;8.764;2022-08-19T08:47:45;22.80;64.00
25953;DHT22;13750;50.804;8.764;2022-08-19T08:50:29;22.90;63.90
25953;DHT22;13750;50.804;8.764;2022-08-19T08:52:58;22.90;64.00
25953;DHT22;13750;50.804;8.764;2022-08-19T08:55:29;23.00;63.90
25953;DHT22;13750;50.804;8.764;2022-08-19T08:57:59;23.00;63.60
25953;DHT22;13750;50.804;8.764;2022-08-19T09:00:39;23.00;62.60
25953;DHT22;13750;50.804;8.764;2022-08-19T09:03:24;23.10;62.30
25953;DHT22;13750;50.804;8.764;2022-08-19T09:08:52;23.10;62.10
25953;DHT22;13750;50.804;8.764;2022-08-19T09:16:48;23.10;62.60
25953;DHT22;13750;50.804;8.764;2022-08-19T09:19:15;23.10;61.80
25953;DHT22;13750;50.804;8.764;2022-08-19T09:21:43;23.10;62.10
25953;DHT22;13750;50.804;8.764;2022-08-19T09:24:09;23.20;62.30
25953;DHT22;13750;50.804;8.764;2022-08-19T09:26:34;23.20;62.20
25953;DHT22;13750;50.804;8.764;2022-08-19T09:29:00;23.20;62.00
25953;DHT22;13750;50.804;8.764;2022-08-19T09:31:29;23.20;62.00
25953;DHT22;13750;50.804;8.764;2022-08-19T09:33:55;23.20;61.90
25953;DHT22;13750;50.804;8.764;2022-08-19T09:36:26;23.20;61.70
25953;DHT22;13750;50.804;8.764;2022-08-19T09:38:53;23.20;60.50
25953;DHT22;13750;50.804;8.764;2022-08-19T09:41:20;23.30;59.80
25953;DHT22;13750;50.804;8.764;2022-08-19T09:43:47;23.30;59.40
25953;DHT22;13750;50.804;8.764;2022-08-19T09:46:13;23.30;59.00
25953;DHT22;13750;50.804;8.764;2022-08-19T09:48:39;23.40;58.80
25953;DHT22;13750;50.804;8.764;2022-08-19T09:51:10;23.30;58.10
25953;DHT22;13750;50.804;8.764;2022-08-19T09:53:40;23.40;58.20
25953;DHT22;13750;50.804;8.764;2022-08-19T09:56:06;23.30;58.00
25953;DHT22;13750;50.804;8.764;2022-08-19T09:58:33;23.30;58.50
25953;DHT22;13750;50.804;8.764;2022-08-19T10:01:01;23.30;58.90
25953;DHT22;13750;50.804;8.764;2022-08-19T10:03:28;23.40;58.80
25953;DHT22;13750;50.804;8.764;2022-08-19T10:05:55;23.40;57.90
25953;DHT22;13750;50.804;8.764;2022-08-19T10:08:24;23.50;57.90
25953;DHT22;13750;50.804;8.764;2022-08-19T10:10:51;23.50;57.60
25953;DHT22;13750;50.804;8.764;2022-08-19T10:13:20;23.50;57.50
25953;DHT22;13750;50.804;8.764;2022-08-19T10:15:49;23.60;57.20
25953;DHT22;13750;50.804;8.764;2022-08-19T10:18:19;23.60;57.10
25953;DHT22;13750;50.804;8.764;2022-08-19T10:20:45;23.60;57.40
25953;DHT22;13750;50.804;8.764;2022-08-19T10:23:12;23.70;56.80
25953;DHT22;13750;50.804;8.764;2022-08-19T10:25:37;23.70;56.70
25953;DHT22;13750;50.804;8.764;2022-08-19T10:28:04;23.80;54.70
25953;DHT22;13750;50.804;8.764;2022-08-19T10:30:31;23.90;54.10
25953;DHT22;13750;50.804;8.764;2022-08-19T10:32:56;23.80;54.40
25953;DHT22;13750;50.804;8.764;2022-08-19T10:35:22;23.90;54.90
25953;DHT22;13750;50.804;8.764;2022-08-19T10:37:48;23.90;55.60
25953;DHT22;13750;50.804;8.764;2022-08-19T10:40:14;23.90;55.70
25953;DHT22;13750;50.804;8.764;2022-08-19T10:42:39;23.80;56.10
25953;DHT22;13750;50.804;8.764;2022-08-19T10:45:05;23.90;56.10
25953;DHT22;13750;50.804;8.764;2022-08-19T10:47:32;23.80;56.10
25953;DHT22;13750;50.804;8.764;2022-08-19T10:49:58;23.90;56.20
25953;DHT22;13750;50.804;8.764;2022-08-19T10:52:45;23.90;56.30
25953;DHT22;13750;50.804;8.764;2022-08-19T10:55:11;24.10;55.10
25953;DHT22;13750;50.804;8.764;2022-08-19T10:57:55;24.00;55.20
25953;DHT22;13750;50.804;8.764;2022-08-19T11:00:22;24.10;55.10
25953;DHT22;13750;50.804;8.764;2022-08-19T11:02:48;24.10;55.10
25953;DHT22;13750;50.804;8.764;2022-08-19T11:05:14;24.10;55.20
25953;DHT22;13750;50.804;8.764;2022-08-19T11:07:41;24.10;55.60
25953;DHT22;13750;50.804;8.764;2022-08-19T11:10:09;24.20;55.20
25953;DHT22;13750;50.804;8.764;2022-08-19T11:12:37;24.30;54.40
25953;DHT22;13750;50.804;8.764;2022-08-19T11:15:08;24.30;54.40
25953;DHT22;13750;50.804;8.764;2022-08-19T11:17:38;24.30;54.30
25953;DHT22;13750;50.804;8.764;2022-08-19T11:20:07;24.30;54.60
25953;DHT22;13750;50.804;8.764;2022-08-19T11:22:34;24.30;54.30
25953;DHT22;13750;50.804;8.764;2022-08-19T11:25:00;24.30;54.30
25953;DHT22;13750;50.804;8.764;2022-08-19T11:27:25;24.20;54.60
25953;DHT22;13750;50.804;8.764;2022-08-19T11:29:51;24.30;54.50
25953;DHT22;13750;50.804;8.764;2022-08-19T11:32:17;24.30;54.90
25953;DHT22;13750;50.804;8.764;2022-08-19T11:34:43;24.30;54.70
25953;DHT22;13750;50.804;8.764;2022-08-19T11:37:09;24.30;54.90
25953;DHT22;13750;50.804;8.764;2022-08-19T11:39:35;24.30;55.00
25953;DHT22;13750;50.804;8.764;2022-08-19T11:42:03;24.30;55.20
25953;DHT22;13750;50.804;8.764;2022-08-19T11:44:49;24.30;55.30
25953;DHT22;13750;50.804;8.764;2022-08-19T11:47:15;24.30;54.80
25953;DHT22;13750;50.804;8.764;2022-08-19T11:49:43;24.30;54.70
25953;DHT22;13750;50.804;8.764;2022-08-19T11:52:08;24.40;53.30
25953;DHT22;13750;50.804;8.764;2022-08-19T11:54:34;24.50;52.80
25953;DHT22;13750;50.804;8.764;2022-08-19T11:57:02;24.50;53.00
25953;DHT22;13750;50.804;8.764;2022-08-19T11:59:28;24.50;52.90
25953;DHT22;13750;50.804;8.764;2022-08-19T12:01:54;24.50;53.10
25953;DHT22;13750;50.804;8.764;2022-08-19T12:04:21;24.50;52.50
25953;DHT22;13750;50.804;8.764;2022-08-19T12:06:47;24.50;52.50
25953;DHT22;13750;50.804;8.764;2022-08-19T12:09:12;24.50;52.50
25953;DHT22;13750;50.804;8.764;2022-08-19T12:11:39;24.50;52.70
25953;DHT22;13750;50.804;8.764;2022-08-19T12:14:06;24.50;52.60
25953;DHT22;13750;50.804;8.764;2022-08-19T12:16:34;24.60;51.70
25953;DHT22;13750;50.804;8.764;2022-08-19T12:19:01;24.60;51.20
25953;DHT22;13750;50.804;8.764;2022-08-19T12:21:29;24.60;51.60
25953;DHT22;13750;50.804;8.764;2022-08-19T12:23:57;24.70;51.80
25953;DHT22;13750;50.804;8.764;2022-08-19T12:26:24;24.70;50.30
25953;DHT22;13750;50.804;8.764;2022-08-19T12:28:50;24.80;50.30
25953;DHT22;13750;50.804;8.764;2022-08-19T12:31:16;24.70;50.70
25953;DHT22;13750;50.804;8.764;2022-08-19T12:33:42;24.70;51.30
25953;DHT22;13750;50.804;8.764;2022-08-19T12:36:13;24.70;51.50
25953;DHT22;13750;50.804;8.764;2022-08-19T12:38:40;24.70;51.60
25953;DHT22;13750;50.804;8.764;2022-08-19T12:41:08;24.70;51.40
25953;DHT22;13750;50.804;8.764;2022-08-19T12:43:34;24.70;50.60
25953;DHT22;13750;50.804;8.764;2022-08-19T12:46:01;24.70;50.30
25953;DHT22;13750;50.804;8.764;2022-08-19T12:48:26;24.80;50.50
25953;DHT22;13750;50.804;8.764;2022-08-19T12:50:52;24.80;50.70
25953;DHT22;13750;50.804;8.764;2022-08-19T12:53:19;24.80;50.70
25953;DHT22;13750;50.804;8.764;2022-08-19T12:55:45;24.80;50.60
25953;DHT22;13750;50.804;8.764;2022-08-19T12:58:10;24.80;49.70
25953;DHT22;13750;50.804;8.764;2022-08-19T13:00:38;24.80;49.40
25953;DHT22;13750;50.804;8.764;2022-08-19T13:03:06;24.80;49.80
25953;DHT22;13750;50.804;8.764;2022-08-19T13:05:32;24.80;49.90
25953;DHT22;13750;50.804;8.764;2022-08-19T13:08:01;24.80;50.00
25953;DHT22;13750;50.804;8.764;2022-08-19T13:10:30;24.90;49.80
25953;DHT22;13750;50.804;8.764;2022-08-19T13:12:56;24.80;49.90
25953;DHT22;13750;50.804;8.764;2022-08-19T13:15:24;24.90;50.00
25953;DHT22;13750;50.804;8.764;2022-08-19T13:17:54;24.90;49.60
25953;DHT22;13750;50.804;8.764;2022-08-19T13:20:22;24.80;48.70
25953;DHT22;13750;50.804;8.764;2022-08-19T13:22:48;24.90;49.20
25953;DHT22;13750;50.804;8.764;2022-08-19T13:25:15;24.80;48.50
25953;DHT22;13750;50.804;8.764;2022-08-19T13:27:43;24.90;48.60
25953;DHT22;13750;50.804;8.764;2022-08-19T13:30:10;24.90;48.80
25953;DHT22;13750;50.804;8.764;2022-08-19T13:32:54;25.00;49.00
25953;DHT22;13750;50.804;8.764;2022-08-19T13:35:58;25.00;49.10
25953;DHT22;13750;50.804;8.764;2022-08-19T13:38:26;25.00;49.50
25953;DHT22;13750;50.804;8.764;2022-08-19T13:40:52;25.00;49.70
25953;DHT22;13750;50.804;8.764;2022-08-19T13:43:20;25.00;49.20
25953;DHT22;13750;50.804;8.764;2022-08-19T13:45:48;24.90;49.10
25953;DHT22;13750;50.804;8.764;2022-08-19T13:48:14;25.00;48.90
25953;DHT22;13750;50.804;8.764;2022-08-19T13:50:42;25.00;49.10
25953;DHT22;13750;50.804;8.764;2022-08-19T13:53:09;25.00;49.30
25953;DHT22;13750;50.804;8.764;2022-08-19T13:55:40;25.10;49.40
25953;DHT22;13750;50.804;8.764;2022-08-19T13:58:06;25.10;49.40
25953;DHT22;13750;50.804;8.764;2022-08-19T14:00:35;25.10;49.60
25953;DHT22;13750;50.804;8.764;2022-08-19T14:03:01;25.10;49.70
25953;DHT22;13750;50.804;8.764;2022-08-19T14:05:30;25.10;49.40
25953;DHT22;13750;50.804;8.764;2022-08-19T14:07:56;25.10;49.60
25953;DHT22;13750;50.804;8.764;2022-08-19T14:10:22;25.10;48.90
25953;DHT22;13750;50.804;8.764;2022-08-19T14:12:51;25.20;48.90
25953;DHT22;13750;50.804;8.764;2022-08-19T14:15:17;25.10;49.00
25953;DHT22;13750;50.804;8.764;2022-08-19T14:17:44;25.20;49.20
25953;DHT22;13750;50.804;8.764;2022-08-19T14:20:12;25.20;49.20
25953;DHT22;13750;50.804;8.764;2022-08-19T14:22:39;25.20;49.30
25953;DHT22;13750;50.804;8.764;2022-08-19T14:25:16;25.20;49.30
25953;DHT22;13750;50.804;8.764;2022-08-19T14:27:42;25.20;49.30
25953;DHT22;13750;50.804;8.764;2022-08-19T14:30:11;25.20;49.00
25953;DHT22;13750;50.804;8.764;2022-08-19T14:32:37;25.20;48.60
25953;DHT22;13750;50.804;8.764;2022-08-19T14:35:04;25.20;48.70
25953;DHT22;13750;50.804;8.764;2022-08-19T14:37:30;25.20;49.10
25953;DHT22;13750;50.804;8.764;2022-08-19T14:39:55;25.20;49.50
25953;DHT22;13750;50.804;8.764;2022-08-19T14:42:21;25.20;49.90
25953;DHT22;13750;50.804;8.764;2022-08-19T14:44:47;25.10;50.00
25953;DHT22;13750;50.804;8.764;2022-08-19T14:47:12;25.20;50.20
25953;DHT22;13750;50.804;8.764;2022-08-19T14:49:38;25.20;50.40
25953;DHT22;13750;50.804;8.764;2022-08-19T14:52:05;25.20;50.70
25953;DHT22;13750;50.804;8.764;2022-08-19T14:54:30;25.20;50.60
25953;DHT22;13750;50.804;8.764;2022-08-19T14:56:56;25.20;50.20
25953;DHT22;13750;50.804;8.764;2022-08-19T14:59:22;25.10;50.00
25953;DHT22;13750;50.804;8.764;2022-08-19T15:01:47;25.20;49.80
25953;DHT22;13750;50.804;8.764;2022-08-19T15:04:13;25.10;50.00
25953;DHT22;13750;50.804;8.764;2022-08-19T15:06:38;25.20;50.20
25953;DHT22;13750;50.804;8.764;2022-08-19T15:09:05;25.20;50.50
25953;DHT22;13750;50.804;8.764;2022-08-19T15:11:30;25.20;50.70
25953;DHT22;13750;50.804;8.764;2022-08-19T15:13:58;25.20;50.90
25953;DHT22;13750;50.804;8.764;2022-08-19T15:16:25;25.20;50.10
25953;DHT22;13750;50.804;8.764;2022-08-19T15:18:53;25.20;49.80
25953;DHT22;13750;50.804;8.764;2022-08-19T15:21:20;25.30;49.60
25953;DHT22;13750;50.804;8.764;2022-08-19T15:23:46;25.30;49.60
25953;DHT22;13750;50.804;8.764;2022-08-19T15:26:14;25.30;49.40
25953;DHT22;13750;50.804;8.764;2022-08-19T15:28:39;25.30;49.60
25953;DHT22;13750;50.804;8.764;2022-08-19T15:31:05;25.30;49.70
25953;DHT22;13750;50.804;8.764;2022-08-19T15:33:32;25.40;49.80
25953;DHT22;13750;50.804;8.764;2022-08-19T15:36:01;25.40;49.40
25953;DHT22;13750;50.804;8.764;2022-08-19T15:38:31;25.50;49.20
25953;DHT22;13750;50.804;8.764;2022-08-19T15:40:59;25.60;49.30
25953;DHT22;13750;50.804;8.764;2022-08-19T15:43:45;25.60;49.40
25953;DHT22;13750;50.804;8.764;2022-08-19T15:46:11;25.70;48.60
25953;DHT22;13750;50.804;8.764;2022-08-19T15:48:38;25.70;48.80